sensor_id;sensor_type;location;lat;lon;timestamp;P1;durP1;ratioP1;P2;durP2;ratioP2
67757;SDS011;54562;47.620;18.786;2023-09-18T00:02:36;10.80;;;6.40;;
67757;SDS011;54562;47.620;18.786;2023-09-18T00:05:43;9.70;;;6.80;;
67757;SDS011;54562;47.620;18.786;2023-09-18T00:08:51;10.50;;;6.50;;
67757;SDS011;54562;47.620;18.786;2023-09-18T00:11:58;10.60;;;6.00;;
67757;SDS011;54562;47.620;18.786;2023-09-18T00:15:08;9.70;;;6.30;;
67757;SDS011;54562;47.620;18.786;2023-09-18T00:18:15;10.40;;;6.30;;
67757;SDS011;54562;47.620;18.786;2023-09-18T00:21:23;10.60;;;6.00;;
67757;SDS011;54562;47.620;18.786;2023-09-18T00:24:29;10.60;;;6.10;;
67757;SDS011;54562;47.620;18.786;2023-09-18T00:27:37;11.10;;;6.10;;
67757;SDS011;54562;47.620;18.786;2023-09-18T00:30:49;9.10;;;6.10;;
67757;SDS011;54562;47.620;18.786;2023-09-18T00:33:57;11.50;;;6.30;;
67757;SDS011;54562;47.620;18.786;2023-09-18T00:37:03;13.10;;;6.20;;
67757;SDS011;54562;47.620;18.786;2023-09-18T00:40:11;11.30;;;6.30;;
67757;SDS011;54562;47.620;18.786;2023-09-18T00:43:18;9.90;;;6.60;;
67757;SDS011;54562;47.620;18.786;2023-09-18T00:46:25;12.20;;;6.40;;
67757;SDS011;54562;47.620;18.786;2023-09-18T00:49:31;10.00;;;6.10;;
67757;SDS011;54562;47.620;18.786;2023-09-18T00:52:38;12.10;;;6.50;;
67757;SDS011;54562;47.620;18.786;2023-09-18T00:55:44;11.10;;;6.50;;
67757;SDS011;54562;47.620;18.786;2023-09-18T00:58:51;11.60;;;7.10;;
67757;SDS011;54562;47.620;18.786;2023-09-18T01:01:58;11.40;;;6.60;;
67757;SDS011;54562;47.620;18.786;2023-09-18T01:05:05;9.70;;;6.50;;
67757;SDS011;54562;47.620;18.786;2023-09-18T01:08:12;12.70;;;6.60;;
67757;SDS011;54562;47.620;18.786;2023-09-18T01:11:22;11.70;;;6.80;;
67757;SDS011;54562;47.620;18.786;2023-09-18T01:14:33;11.40;;;6.60;;
67757;SDS011;54562;47.620;18.786;2023-09-18T01:17:44;9.70;;;6.60;;
67757;SDS011;54562;47.620;18.786;2023-09-18T01:20:51;11.70;;;6.50;;
67757;SDS011;54562;47.620;18.786;2023-09-18T01:23:58;9.10;;;6.10;;
67757;SDS011;54562;47.620;18.786;2023-09-18T01:27:07;9.90;;;6.40;;
67757;SDS011;54562;47.620;18.786;2023-09-18T01:30:16;10.50;;;6.40;;
67757;SDS011;54562;47.620;18.786;2023-09-18T01:33:22;10.10;;;6.50;;
67757;SDS011;54562;47.620;18.786;2023-09-18T01:36:31;9.90;;;6.30;;
67757;SDS011;54562;47.620;18.786;2023-09-18T01:39:37;11.50;;;6.30;;
67757;SDS011;54562;47.620;18.786;2023-09-18T01:42:44;10.90;;;6.40;;
67757;SDS011;54562;47.620;18.786;2023-09-18T01:45:51;10.00;;;6.60;;
67757;SDS011;54562;47.620;18.786;2023-09-18T01:48:58;11.10;;;6.70;;
67757;SDS011;54562;47.620;18.786;2023-09-18T01:52:07;9.70;;;6.60;;
67757;SDS011;54562;47.620;18.786;2023-09-18T01:55:15;9.70;;;6.40;;
67757;SDS011;54562;47.620;18.786;2023-09-18T01:58:23;10.80;;;6.60;;
67757;SDS011;54562;47.620;18.786;2023-09-18T02:01:30;11.80;;;6.60;;
67757;SDS011;54562;47.620;18.786;2023-09-18T02:04:36;10.40;;;6.50;;
67757;SDS011;54562;47.620;18.786;2023-09-18T02:08:03;10.60;;;6.70;;
67757;SDS011;54562;47.620;18.786;2023-09-18T02:11:09;12.20;;;6.60;;
67757;SDS011;54562;47.620;18.786;2023-09-18T02:14:16;11.70;;;6.40;;
67757;SDS011;54562;47.620;18.786;2023-09-18T02:17:23;9.90;;;6.50;;
67757;SDS011;54562;47.620;18.786;2023-09-18T02:20:29;11.20;;;6.40;;
67757;SDS011;54562;47.620;18.786;2023-09-18T02:23:36;9.80;;;6.60;;
67757;SDS011;54562;47.620;18.786;2023-09-18T02:26:42;11.80;;;6.70;;
67757;SDS011;54562;47.620;18.786;2023-09-18T02:29:49;10.60;;;6.70;;
67757;SDS011;54562;47.620;18.786;2023-09-18T02:32:58;10.70;;;7.00;;
67757;SDS011;54562;47.620;18.786;2023-09-18T02:36:06;12.50;;;6.80;;
67757;SDS011;54562;47.620;18.786;2023-09-18T02:39:13;10.20;;;7.00;;
67757;SDS011;54562;47.620;18.786;2023-09-18T02:42:19;11.20;;;6.70;;
67757;SDS011;54562;47.620;18.786;2023-09-18T02:45:26;10.60;;;6.90;;
67757;SDS011;54562;47.620;18.786;2023-09-18T02:48:33;10.50;;;7.50;;
67757;SDS011;54562;47.620;18.786;2023-09-18T02:51:39;9.50;;;7.00;;
67757;SDS011;54562;47.620;18.786;2023-09-18T02:54:46;12.70;;;7.60;;
67757;SDS011;54562;47.620;18.786;2023-09-18T02:57:52;10.60;;;7.50;;
67757;SDS011;54562;47.620;18.786;2023-09-18T03:00:59;9.90;;;7.10;;
67757;SDS011;54562;47.620;18.786;2023-09-18T03:04:10;11.80;;;7.90;;
67757;SDS011;54562;47.620;18.786;2023-09-18T03:07:16;11.10;;;7.00;;
67757;SDS011;54562;47.620;18.786;2023-09-18T03:10:22;13.80;;;7.80;;
67757;SDS011;54562;47.620;18.786;2023-09-18T03:13:29;12.70;;;8.40;;
67757;SDS011;54562;47.620;18.786;2023-09-18T03:16:36;14.30;;;8.00;;
67757;SDS011;54562;47.620;18.786;2023-09-18T03:19:48;12.10;;;8.30;;
67757;SDS011;54562;47.620;18.786;2023-09-18T03:22:55;12.60;;;8.60;;
67757;SDS011;54562;47.620;18.786;2023-09-18T03:26:03;11.70;;;8.70;;
67757;SDS011;54562;47.620;18.786;2023-09-18T03:29:09;12.50;;;8.90;;
67757;SDS011;54562;47.620;18.786;2023-09-18T03:32:16;12.10;;;9.30;;
67757;SDS011;54562;47.620;18.786;2023-09-18T03:35:23;13.70;;;9.30;;
67757;SDS011;54562;47.620;18.786;2023-09-18T03:38:30;13.10;;;9.40;;
67757;SDS011;54562;47.620;18.786;2023-09-18T03:41:38;13.10;;;9.50;;
67757;SDS011;54562;47.620;18.786;2023-09-18T03:44:45;12.30;;;8.90;;
67757;SDS011;54562;47.620;18.786;2023-09-18T03:47:52;14.10;;;8.60;;
67757;SDS011;54562;47.620;18.786;2023-09-18T03:51:00;14.40;;;8.90;;
67757;SDS011;54562;47.620;18.786;2023-09-18T03:54:07;17.40;;;9.30;;
67757;SDS011;54562;47.620;18.786;2023-09-18T03:57:14;12.90;;;9.50;;
67757;SDS011;54562;47.620;18.786;2023-09-18T04:00:20;14.20;;;9.80;;
67757;SDS011;54562;47.620;18.786;2023-09-18T04:03:27;14.50;;;10.00;;
67757;SDS011;54562;47.620;18.786;2023-09-18T04:06:37;14.20;;;9.70;;
67757;SDS011;54562;47.620;18.786;2023-09-18T04:09:45;14.20;;;9.80;;
67757;SDS011;54562;47.620;18.786;2023-09-18T04:12:51;15.50;;;9.60;;
67757;SDS011;54562;47.620;18.786;2023-09-18T04:15:58;15.20;;;9.80;;
67757;SDS011;54562;47.620;18.786;2023-09-18T04:19:07;16.10;;;9.70;;
67757;SDS011;54562;47.620;18.786;2023-09-18T04:22:15;14.00;;;10.00;;
67757;SDS011;54562;47.620;18.786;2023-09-18T04:25:21;16.30;;;10.60;;
67757;SDS011;54562;47.620;18.786;2023-09-18T04:28:29;15.00;;;9.40;;
67757;SDS011;54562;47.620;18.786;2023-09-18T04:31:36;17.20;;;10.50;;
67757;SDS011;54562;47.620;18.786;2023-09-18T04:34:42;14.80;;;10.10;;
67757;SDS011;54562;47.620;18.786;2023-09-18T04:37:49;15.90;;;11.00;;
67757;SDS011;54562;47.620;18.786;2023-09-18T04:40:59;15.30;;;10.10;;
67757;SDS011;54562;47.620;18.786;2023-09-18T04:44:06;15.00;;;10.20;;
67757;SDS011;54562;47.620;18.786;2023-09-18T04:47:16;16.90;;;10.80;;
67757;SDS011;54562;47.620;18.786;2023-09-18T04:50:22;16.30;;;10.50;;
67757;SDS011;54562;47.620;18.786;2023-09-18T04:53:30;18.10;;;11.20;;
67757;SDS011;54562;47.620;18.786;2023-09-18T04:56:36;15.90;;;11.00;;
67757;SDS011;54562;47.620;18.786;2023-09-18T04:59:45;16.10;;;10.20;;
67757;SDS011;54562;47.620;18.786;2023-09-18T05:03:12;16.50;;;11.60;;
67757;SDS011;54562;47.620;18.786;2023-09-18T05:06:19;15.70;;;10.80;;
67757;SDS011;54562;47.620;18.786;2023-09-18T05:09:26;15.00;;;10.60;;
67757;SDS011;54562;47.620;18.786;2023-09-18T05:12:32;15.20;;;10.70;;
67757;SDS011;54562;47.620;18.786;2023-09-18T05:15:38;14.10;;;9.60;;
67757;SDS011;54562;47.620;18.786;2023-09-18T05:18:45;17.50;;;10.50;;
67757;SDS011;54562;47.620;18.786;2023-09-18T05:21:51;17.10;;;11.00;;
67757;SDS011;54562;47.620;18.786;2023-09-18T05:24:57;14.80;;;10.50;;
67757;SDS011;54562;47.620;18.786;2023-09-18T05:28:04;16.70;;;11.20;;
67757;SDS011;54562;47.620;18.786;2023-09-18T05:31:12;17.30;;;10.90;;
67757;SDS011;54562;47.620;18.786;2023-09-18T05:34:18;15.00;;;10.90;;
67757;SDS011;54562;47.620;18.786;2023-09-18T05:37:25;16.50;;;11.20;;
67757;SDS011;54562;47.620;18.786;2023-09-18T05:40:31;15.60;;;10.50;;
67757;SDS011;54562;47.620;18.786;2023-09-18T05:43:38;15.60;;;10.80;;
67757;SDS011;54562;47.620;18.786;2023-09-18T05:46:45;16.70;;;11.40;;
67757;SDS011;54562;47.620;18.786;2023-09-18T05:49:51;16.00;;;11.00;;
67757;SDS011;54562;47.620;18.786;2023-09-18T05:52:58;17.90;;;10.90;;
67757;SDS011;54562;47.620;18.786;2023-09-18T05:56:07;16.50;;;11.10;;
67757;SDS011;54562;47.620;18.786;2023-09-18T05:59:13;15.90;;;11.00;;
67757;SDS011;54562;47.620;18.786;2023-09-18T06:02:22;16.40;;;11.50;;
67757;SDS011;54562;47.620;18.786;2023-09-18T06:05:29;18.10;;;11.00;;
67757;SDS011;54562;47.620;18.786;2023-09-18T06:08:37;17.60;;;11.50;;
67757;SDS011;54562;47.620;18.786;2023-09-18T06:11:44;17.60;;;11.80;;
67757;SDS011;54562;47.620;18.786;2023-09-18T06:14:50;15.40;;;10.40;;
67757;SDS011;54562;47.620;18.786;2023-09-18T06:17:56;17.30;;;11.20;;
67757;SDS011;54562;47.620;18.786;2023-09-18T06:21:04;17.20;;;11.80;;
67757;SDS011;54562;47.620;18.786;2023-09-18T06:24:10;16.60;;;11.20;;
67757;SDS011;54562;47.620;18.786;2023-09-18T06:27:17;16.80;;;11.30;;
67757;SDS011;54562;47.620;18.786;2023-09-18T06:30:23;19.90;;;11.10;;
67757;SDS011;54562;47.620;18.786;2023-09-18T06:33:29;14.90;;;11.10;;
67757;SDS011;54562;47.620;18.786;2023-09-18T06:36:36;16.50;;;11.40;;
67757;SDS011;54562;47.620;18.786;2023-09-18T06:39:42;15.40;;;11.10;;
67757;SDS011;54562;47.620;18.786;2023-09-18T06:42:49;17.30;;;10.70;;
67757;SDS011;54562;47.620;18.786;2023-09-18T06:45:55;18.80;;;10.90;;
67757;SDS011;54562;47.620;18.786;2023-09-18T06:49:02;17.40;;;12.00;;
67757;SDS011;54562;47.620;18.786;2023-09-18T06:52:08;14.50;;;10.60;;
67757;SDS011;54562;47.620;18.786;2023-09-18T06:55:16;15.70;;;10.50;;
67757;SDS011;54562;47.620;18.786;2023-09-18T06:58:24;15.80;;;10.40;;
67757;SDS011;54562;47.620;18.786;2023-09-18T07:01:30;17.40;;;10.60;;
67757;SDS011;54562;47.620;18.786;2023-09-18T07:04:37;16.70;;;10.70;;
67757;SDS011;54562;47.620;18.786;2023-09-18T07:07:49;15.20;;;10.10;;
67757;SDS011;54562;47.620;18.786;2023-09-18T07:10:55;15.20;;;9.90;;
67757;SDS011;54562;47.620;18.786;2023-09-18T07:14:02;14.60;;;10.10;;
67757;SDS011;54562;47.620;18.786;2023-09-18T07:17:09;15.40;;;10.70;;
67757;SDS011;54562;47.620;18.786;2023-09-18T07:20:16;16.10;;;10.60;;
67757;SDS011;54562;47.620;18.786;2023-09-18T07:23:23;15.40;;;10.80;;
67757;SDS011;54562;47.620;18.786;2023-09-18T07:26:29;15.40;;;10.40;;
67757;SDS011;54562;47.620;18.786;2023-09-18T07:29:38;15.60;;;10.70;;
67757;SDS011;54562;47.620;18.786;2023-09-18T07:32:44;14.10;;;9.80;;
67757;SDS011;54562;47.620;18.786;2023-09-18T07:35:51;16.60;;;9.40;;
67757;SDS011;54562;47.620;18.786;2023-09-18T07:38:58;14.00;;;9.90;;
67757;SDS011;54562;47.620;18.786;2023-09-18T07:42:04;14.60;;;10.10;;
67757;SDS011;54562;47.620;18.786;2023-09-18T07:45:12;14.90;;;10.30;;
67757;SDS011;54562;47.620;18.786;2023-09-18T07:48:19;13.80;;;9.80;;
67757;SDS011;54562;47.620;18.786;2023-09-18T07:51:26;14.40;;;9.20;;
67757;SDS011;54562;47.620;18.786;2023-09-18T07:54:33;13.70;;;9.40;;
67757;SDS011;54562;47.620;18.786;2023-09-18T07:57:39;16.30;;;9.50;;
67757;SDS011;54562;47.620;18.786;2023-09-18T08:00:49;14.10;;;9.10;;
67757;SDS011;54562;47.620;18.786;2023-09-18T08:03:56;15.20;;;8.50;;
67757;SDS011;54562;47.620;18.786;2023-09-18T08:07:04;15.80;;;9.00;;
67757;SDS011;54562;47.620;18.786;2023-09-18T08:10:10;13.40;;;8.80;;
67757;SDS011;54562;47.620;18.786;2023-09-18T08:13:17;12.90;;;8.70;;
67757;SDS011;54562;47.620;18.786;2023-09-18T08:16:24;16.80;;;9.30;;
67757;SDS011;54562;47.620;18.786;2023-09-18T08:19:32;13.80;;;8.80;;
67757;SDS011;54562;47.620;18.786;2023-09-18T08:22:39;11.90;;;8.10;;
67757;SDS011;54562;47.620;18.786;2023-09-18T08:25:48;16.50;;;9.10;;
67757;SDS011;54562;47.620;18.786;2023-09-18T08:28:58;14.10;;;8.50;;
67757;SDS011;54562;47.620;18.786;2023-09-18T08:32:05;11.80;;;7.80;;
67757;SDS011;54562;47.620;18.786;2023-09-18T08:35:13;12.00;;;8.30;;
67757;SDS011;54562;47.620;18.786;2023-09-18T08:38:21;12.90;;;8.40;;
67757;SDS011;54562;47.620;18.786;2023-09-18T08:41:28;18.00;;;9.20;;
67757;SDS011;54562;47.620;18.786;2023-09-18T08:44:35;11.60;;;8.20;;
67757;SDS011;54562;47.620;18.786;2023-09-18T08:47:44;16.20;;;8.60;;
67757;SDS011;54562;47.620;18.786;2023-09-18T08:50:52;29.10;;;9.50;;
67757;SDS011;54562;47.620;18.786;2023-09-18T08:53:58;13.00;;;8.30;;
67757;SDS011;54562;47.620;18.786;2023-09-18T08:57:07;20.20;;;9.00;;
67757;SDS011;54562;47.620;18.786;2023-09-18T09:00:15;12.90;;;7.60;;
67757;SDS011;54562;47.620;18.786;2023-09-18T09:03:23;12.70;;;8.00;;
67757;SDS011;54562;47.620;18.786;2023-09-18T09:09:35;29.30;;;10.20;;
67757;SDS011;54562;47.620;18.786;2023-09-18T09:12:50;13.30;;;7.90;;
67757;SDS011;54562;47.620;18.786;2023-09-18T09:15:58;20.30;;;8.50;;
67757;SDS011;54562;47.620;18.786;2023-09-18T09:19:05;12.00;;;7.70;;
67757;SDS011;54562;47.620;18.786;2023-09-18T09:22:19;50.50;;;11.50;;
67757;SDS011;54562;47.620;18.786;2023-09-18T09:25:26;12.50;;;7.40;;
67757;SDS011;54562;47.620;18.786;2023-09-18T09:28:35;10.70;;;7.50;;
67757;SDS011;54562;47.620;18.786;2023-09-18T09:31:42;12.30;;;7.50;;
67757;SDS011;54562;47.620;18.786;2023-09-18T09:34:49;16.40;;;8.10;;
67757;SDS011;54562;47.620;18.786;2023-09-18T09:37:56;11.90;;;7.70;;
67757;SDS011;54562;47.620;18.786;2023-09-18T09:41:04;13.70;;;7.40;;
67757;SDS011;54562;47.620;18.786;2023-09-18T09:47:18;13.50;;;8.10;;
67757;SDS011;54562;47.620;18.786;2023-09-18T09:50:24;34.00;;;10.00;;
67757;SDS011;54562;47.620;18.786;2023-09-18T09:53:45;16.60;;;7.30;;
67757;SDS011;54562;47.620;18.786;2023-09-18T09:56:54;11.60;;;7.30;;
67757;SDS011;54562;47.620;18.786;2023-09-18T10:00:04;11.50;;;7.50;;
67757;SDS011;54562;47.620;18.786;2023-09-18T10:03:29;28.10;;;9.60;;
67757;SDS011;54562;47.620;18.786;2023-09-18T10:06:38;24.70;;;9.80;;
67757;SDS011;54562;47.620;18.786;2023-09-18T10:09:47;15.10;;;8.00;;
67757;SDS011;54562;47.620;18.786;2023-09-18T10:12:54;23.00;;;9.10;;
67757;SDS011;54562;47.620;18.786;2023-09-18T10:16:04;34.30;;;9.50;;
67757;SDS011;54562;47.620;18.786;2023-09-18T10:19:14;14.20;;;8.60;;
67757;SDS011;54562;47.620;18.786;2023-09-18T10:22:28;14.90;;;7.80;;
67757;SDS011;54562;47.620;18.786;2023-09-18T10:25:42;11.20;;;7.40;;
67757;SDS011;54562;47.620;18.786;2023-09-18T10:28:48;10.80;;;7.60;;
67757;SDS011;54562;47.620;18.786;2023-09-18T10:31:59;13.20;;;8.40;;
67757;SDS011;54562;47.620;18.786;2023-09-18T10:35:06;13.10;;;8.10;;
67757;SDS011;54562;47.620;18.786;2023-09-18T10:38:15;13.80;;;8.40;;
67757;SDS011;54562;47.620;18.786;2023-09-18T10:41:26;12.50;;;8.50;;
67757;SDS011;54562;47.620;18.786;2023-09-18T10:44:33;13.30;;;8.30;;
67757;SDS011;54562;47.620;18.786;2023-09-18T10:47:40;11.50;;;8.30;;
67757;SDS011;54562;47.620;18.786;2023-09-18T10:50:49;11.80;;;9.10;;
67757;SDS011;54562;47.620;18.786;2023-09-18T10:53:59;12.30;;;8.80;;
67757;SDS011;54562;47.620;18.786;2023-09-18T10:57:06;11.30;;;8.40;;
67757;SDS011;54562;47.620;18.786;2023-09-18T11:00:14;12.60;;;9.10;;
67757;SDS011;54562;47.620;18.786;2023-09-18T11:03:22;12.00;;;9.00;;
67757;SDS011;54562;47.620;18.786;2023-09-18T11:06:29;15.80;;;8.90;;
67757;SDS011;54562;47.620;18.786;2023-09-18T11:09:42;14.20;;;9.20;;
67757;SDS011;54562;47.620;18.786;2023-09-18T11:12:49;13.50;;;9.10;;
67757;SDS011;54562;47.620;18.786;2023-09-18T11:16:00;11.90;;;8.80;;
67757;SDS011;54562;47.620;18.786;2023-09-18T11:19:24;11.20;;;8.60;;
67757;SDS011;54562;47.620;18.786;2023-09-18T11:22:35;11.30;;;8.60;;
67757;SDS011;54562;47.620;18.786;2023-09-18T11:25:44;12.70;;;9.10;;
67757;SDS011;54562;47.620;18.786;2023-09-18T11:28:53;12.00;;;8.90;;
67757;SDS011;54562;47.620;18.786;2023-09-18T11:32:00;12.60;;;8.80;;
67757;SDS011;54562;47.620;18.786;2023-09-18T11:35:08;11.00;;;8.70;;
67757;SDS011;54562;47.620;18.786;2023-09-18T11:38:16;11.90;;;8.50;;
67757;SDS011;54562;47.620;18.786;2023-09-18T11:41:24;13.40;;;8.90;;
67757;SDS011;54562;47.620;18.786;2023-09-18T11:44:35;12.20;;;9.00;;
67757;SDS011;54562;47.620;18.786;2023-09-18T11:47:45;10.90;;;9.00;;
67757;SDS011;54562;47.620;18.786;2023-09-18T11:50:58;11.50;;;9.10;;
67757;SDS011;54562;47.620;18.786;2023-09-18T11:54:08;14.20;;;9.20;;
67757;SDS011;54562;47.620;18.786;2023-09-18T11:57:15;14.30;;;9.40;;
67757;SDS011;54562;47.620;18.786;2023-09-18T12:00:23;12.30;;;8.70;;
67757;SDS011;54562;47.620;18.786;2023-09-18T12:03:31;11.30;;;8.50;;
67757;SDS011;54562;47.620;18.786;2023-09-18T12:06:38;10.70;;;8.50;;
67757;SDS011;54562;47.620;18.786;2023-09-18T12:09:45;14.10;;;9.10;;
67757;SDS011;54562;47.620;18.786;2023-09-18T12:12:52;14.60;;;8.90;;
67757;SDS011;54562;47.620;18.786;2023-09-18T12:15:58;12.00;;;8.70;;
67757;SDS011;54562;47.620;18.786;2023-09-18T12:19:08;12.40;;;8.90;;
67757;SDS011;54562;47.620;18.786;2023-09-18T12:22:25;12.20;;;8.50;;
67757;SDS011;54562;47.620;18.786;2023-09-18T12:25:33;11.60;;;9.00;;
67757;SDS011;54562;47.620;18.786;2023-09-18T12:28:40;14.80;;;9.30;;
67757;SDS011;54562;47.620;18.786;2023-09-18T12:31:47;12.40;;;8.80;;
67757;SDS011;54562;47.620;18.786;2023-09-18T12:34:55;12.10;;;9.10;;
67757;SDS011;54562;47.620;18.786;2023-09-18T12:38:02;14.70;;;9.30;;
67757;SDS011;54562;47.620;18.786;2023-09-18T12:41:20;11.10;;;8.60;;
67757;SDS011;54562;47.620;18.786;2023-09-18T12:44:34;15.90;;;9.20;;
67757;SDS011;54562;47.620;18.786;2023-09-18T12:47:43;14.60;;;9.20;;
67757;SDS011;54562;47.620;18.786;2023-09-18T12:50:52;17.60;;;9.00;;
67757;SDS011;54562;47.620;18.786;2023-09-18T12:54:02;13.40;;;8.60;;
67757;SDS011;54562;47.620;18.786;2023-09-18T12:57:11;21.30;;;9.30;;
67757;SDS011;54562;47.620;18.786;2023-09-18T13:00:21;11.60;;;8.80;;
67757;SDS011;54562;47.620;18.786;2023-09-18T13:03:30;31.00;;;10.00;;
67757;SDS011;54562;47.620;18.786;2023-09-18T13:06:37;17.00;;;9.00;;
67757;SDS011;54562;47.620;18.786;2023-09-18T13:09:57;10.70;;;8.30;;
67757;SDS011;54562;47.620;18.786;2023-09-18T13:13:04;12.00;;;9.60;;
67757;SDS011;54562;47.620;18.786;2023-09-18T13:16:10;12.80;;;8.30;;
67757;SDS011;54562;47.620;18.786;2023-09-18T13:19:16;11.90;;;9.20;;
67757;SDS011;54562;47.620;18.786;2023-09-18T13:22:24;13.50;;;8.90;;
67757;SDS011;54562;47.620;18.786;2023-09-18T13:25:31;13.10;;;8.80;;
67757;SDS011;54562;47.620;18.786;2023-09-18T13:28:42;13.30;;;8.70;;
67757;SDS011;54562;47.620;18.786;2023-09-18T13:31:48;15.70;;;8.90;;
67757;SDS011;54562;47.620;18.786;2023-09-18T13:34:55;11.30;;;9.10;;
67757;SDS011;54562;47.620;18.786;2023-09-18T13:38:02;13.50;;;9.30;;
67757;SDS011;54562;47.620;18.786;2023-09-18T13:41:09;11.40;;;8.90;;
67757;SDS011;54562;47.620;18.786;2023-09-18T13:44:16;11.90;;;8.70;;
67757;SDS011;54562;47.620;18.786;2023-09-18T13:47:25;14.80;;;9.20;;
67757;SDS011;54562;47.620;18.786;2023-09-18T13:50:31;12.80;;;8.60;;
67757;SDS011;54562;47.620;18.786;2023-09-18T13:53:38;14.30;;;8.80;;
67757;SDS011;54562;47.620;18.786;2023-09-18T13:56:46;10.90;;;8.40;;
67757;SDS011;54562;47.620;18.786;2023-09-18T13:59:54;16.60;;;8.70;;
67757;SDS011;54562;47.620;18.786;2023-09-18T14:03:01;12.40;;;8.50;;
67757;SDS011;54562;47.620;18.786;2023-09-18T14:06:08;12.80;;;9.30;;
67757;SDS011;54562;47.620;18.786;2023-09-18T14:09:14;11.80;;;9.20;;
67757;SDS011;54562;47.620;18.786;2023-09-18T14:12:24;14.30;;;8.70;;
67757;SDS011;54562;47.620;18.786;2023-09-18T14:15:31;13.00;;;8.70;;
67757;SDS011;54562;47.620;18.786;2023-09-18T14:18:37;14.30;;;8.90;;
67757;SDS011;54562;47.620;18.786;2023-09-18T14:21:44;14.00;;;9.30;;
67757;SDS011;54562;47.620;18.786;2023-09-18T14:24:52;14.80;;;9.20;;
67757;SDS011;54562;47.620;18.786;2023-09-18T14:27:59;14.50;;;9.20;;
67757;SDS011;54562;47.620;18.786;2023-09-18T14:31:06;24.30;;;9.60;;
67757;SDS011;54562;47.620;18.786;2023-09-18T14:34:13;12.20;;;9.20;;
67757;SDS011;54562;47.620;18.786;2023-09-18T14:37:20;13.20;;;8.90;;
67757;SDS011;54562;47.620;18.786;2023-09-18T14:40:27;14.60;;;8.90;;
67757;SDS011;54562;47.620;18.786;2023-09-18T14:43:33;14.10;;;9.10;;
67757;SDS011;54562;47.620;18.786;2023-09-18T14:46:40;11.80;;;7.80;;
67757;SDS011;54562;47.620;18.786;2023-09-18T14:49:47;12.90;;;8.30;;
67757;SDS011;54562;47.620;18.786;2023-09-18T14:52:53;12.30;;;8.60;;
67757;SDS011;54562;47.620;18.786;2023-09-18T14:56:00;14.10;;;8.80;;
67757;SDS011;54562;47.620;18.786;2023-09-18T14:59:07;14.00;;;8.80;;
67757;SDS011;54562;47.620;18.786;2023-09-18T15:02:14;12.20;;;7.80;;
67757;SDS011;54562;47.620;18.786;2023-09-18T15:05:21;13.40;;;8.70;;
67757;SDS011;54562;47.620;18.786;2023-09-18T15:08:30;12.00;;;8.80;;
67757;SDS011;54562;47.620;18.786;2023-09-18T15:11:37;12.90;;;8.50;;
67757;SDS011;54562;47.620;18.786;2023-09-18T15:14:45;16.10;;;8.40;;
67757;SDS011;54562;47.620;18.786;2023-09-18T15:17:52;11.80;;;8.20;;
67757;SDS011;54562;47.620;18.786;2023-09-18T15:21:04;17.40;;;8.60;;
67757;SDS011;54562;47.620;18.786;2023-09-18T15:24:16;14.40;;;8.50;;
67757;SDS011;54562;47.620;18.786;2023-09-18T15:27:28;20.40;;;9.20;;
67757;SDS011;54562;47.620;18.786;2023-09-18T15:30:40;16.90;;;8.80;;
67757;SDS011;54562;47.620;18.786;2023-09-18T15:33:50;13.90;;;8.20;;
67757;SDS011;54562;47.620;18.786;2023-09-18T15:36:58;12.90;;;8.40;;
67757;SDS011;54562;47.620;18.786;2023-09-18T15:40:09;11.70;;;8.70;;
67757;SDS011;54562;47.620;18.786;2023-09-18T15:43:16;15.70;;;8.30;;
67757;SDS011;54562;47.620;18.786;2023-09-18T15:46:23;16.70;;;8.60;;
67757;SDS011;54562;47.620;18.786;2023-09-18T15:49:30;12.70;;;8.20;;
67757;SDS011;54562;47.620;18.786;2023-09-18T15:52:37;13.40;;;8.30;;
67757;SDS011;54562;47.620;18.786;2023-09-18T15:55:44;38.40;;;9.70;;
67757;SDS011;54562;47.620;18.786;2023-09-18T15:58:51;14.80;;;8.20;;
67757;SDS011;54562;47.620;18.786;2023-09-18T16:01:57;11.60;;;7.80;;
67757;SDS011;54562;47.620;18.786;2023-09-18T16:05:05;15.60;;;8.40;;
67757;SDS011;54562;47.620;18.786;2023-09-18T16:08:12;14.20;;;7.60;;
67757;SDS011;54562;47.620;18.786;2023-09-18T16:11:19;16.10;;;8.10;;
67757;SDS011;54562;47.620;18.786;2023-09-18T16:14:25;14.40;;;7.80;;
67757;SDS011;54562;47.620;18.786;2023-09-18T16:17:32;10.90;;;7.60;;
67757;SDS011;54562;47.620;18.786;2023-09-18T16:20:39;13.80;;;7.90;;
67757;SDS011;54562;47.620;18.786;2023-09-18T16:23:45;15.30;;;7.80;;
67757;SDS011;54562;47.620;18.786;2023-09-18T16:26:52;12.90;;;8.10;;
67757;SDS011;54562;47.620;18.786;2023-09-18T16:30:00;12.10;;;7.90;;
67757;SDS011;54562;47.620;18.786;2023-09-18T16:33:08;14.20;;;8.30;;
67757;SDS011;54562;47.620;18.786;2023-09-18T16:36:16;12.00;;;8.10;;
67757;SDS011;54562;47.620;18.786;2023-09-18T16:39:23;14.70;;;7.80;;
67757;SDS011;54562;47.620;18.786;2023-09-18T16:42:30;15.00;;;8.10;;
67757;SDS011;54562;47.620;18.786;2023-09-18T16:45:36;12.80;;;8.00;;
67757;SDS011;54562;47.620;18.786;2023-09-18T16:48:45;11.10;;;7.40;;
67757;SDS011;54562;47.620;18.786;2023-09-18T16:51:56;13.70;;;7.50;;
67757;SDS011;54562;47.620;18.786;2023-09-18T16:55:02;11.90;;;7.70;;
67757;SDS011;54562;47.620;18.786;2023-09-18T16:58:10;11.80;;;7.70;;
67757;SDS011;54562;47.620;18.786;2023-09-18T17:01:16;12.70;;;8.10;;
67757;SDS011;54562;47.620;18.786;2023-09-18T17:04:23;15.20;;;8.30;;
67757;SDS011;54562;47.620;18.786;2023-09-18T17:07:30;14.80;;;7.60;;
67757;SDS011;54562;47.620;18.786;2023-09-18T17:10:36;14.30;;;8.10;;
67757;SDS011;54562;47.620;18.786;2023-09-18T17:13:47;14.00;;;7.90;;
67757;SDS011;54562;47.620;18.786;2023-09-18T17:16:53;14.40;;;8.30;;
67757;SDS011;54562;47.620;18.786;2023-09-18T17:19:59;17.40;;;8.10;;
67757;SDS011;54562;47.620;18.786;2023-09-18T17:23:07;14.60;;;7.70;;
67757;SDS011;54562;47.620;18.786;2023-09-18T17:26:14;11.40;;;7.80;;
67757;SDS011;54562;47.620;18.786;2023-09-18T17:29:21;11.10;;;7.80;;
67757;SDS011;54562;47.620;18.786;2023-09-18T17:32:27;12.00;;;7.00;;
67757;SDS011;54562;47.620;18.786;2023-09-18T17:35:34;13.50;;;7.60;;
67757;SDS011;54562;47.620;18.786;2023-09-18T17:38:43;14.70;;;7.90;;
67757;SDS011;54562;47.620;18.786;2023-09-18T17:41:52;11.20;;;7.40;;
67757;SDS011;54562;47.620;18.786;2023-09-18T17:45:00;14.50;;;7.80;;
67757;SDS011;54562;47.620;18.786;2023-09-18T17:48:08;11.90;;;7.70;;
67757;SDS011;54562;47.620;18.786;2023-09-18T17:51:15;16.60;;;8.00;;
67757;SDS011;54562;47.620;18.786;2023-09-18T17:54:22;15.30;;;7.90;;
67757;SDS011;54562;47.620;18.786;2023-09-18T17:57:29;16.00;;;7.70;;
67757;SDS011;54562;47.620;18.786;2023-09-18T18:00:37;12.30;;;7.90;;
67757;SDS011;54562;47.620;18.786;2023-09-18T18:03:44;11.60;;;8.00;;
67757;SDS011;54562;47.620;18.786;2023-09-18T18:06:54;13.40;;;8.40;;
67757;SDS011;54562;47.620;18.786;2023-09-18T18:10:01;13.50;;;7.80;;
67757;SDS011;54562;47.620;18.786;2023-09-18T18:13:09;12.70;;;6.80;;
67757;SDS011;54562;47.620;18.786;2023-09-18T18:16:16;12.80;;;8.00;;
67757;SDS011;54562;47.620;18.786;2023-09-18T18:19:24;14.40;;;8.10;;
67757;SDS011;54562;47.620;18.786;2023-09-18T18:22:30;15.10;;;7.40;;